Time;durP1;ratioP1;P1;durP2;ratioP2;P2;SDS_P1;SDS_P2;PMS_P1;PMS_P2;Temp;Humidity;BMP_temperature;BMP_pressure;BME280_temperature;BME280_humidity;BME280_pressure;Samples;Min_cycle;Max_cycle;Signal;HPM_P1;HPM_P2
2023/09/12 00:01:18;;;;;;;13.23;10.80;;;;;;;22.41;90.69;100528.06;5042182;28;20560;-80
2023/09/12 00:03:48;;;;;;;23.73;10.15;;;;;;;22.37;90.79;100521.22;5022897;28;20069;-82
2023/09/12 00:06:28;;;;;;;17.40;11.57;;;;;;;22.30;91.97;100534.00;5030125;28;20060;-81
2023/09/12 00:08:55;;;;;;;14.80;11.07;;;;;;;22.23;93.03;100555.81;5052450;28;20076;-82
2023/09/12 00:11:25;;;;;;;18.38;11.18;;;;;;;22.23;93.32;100566.47;5043472;28;20710;-81
2023/09/12 00:13:52;;;;;;;14.38;10.32;;;;;;;22.19;92.81;100575.59;5046944;28;20048;-82
2023/09/12 00:16:19;;;;;;;16.35;12.32;;;;;;;22.11;94.29;100568.03;5034823;28;20041;-81
2023/09/12 00:18:46;;;;;;;13.25;11.77;;;;;;;22.08;94.37;100545.09;5046994;28;20045;-81
2023/09/12 00:21:12;;;;;;;19.67;12.07;;;;;;;22.01;94.90;100532.25;5045994;28;20045;-81
2023/09/12 00:23:39;;;;;;;17.08;12.20;;;;;;;21.99;95.06;100529.63;5046307;28;20095;-80
2023/09/12 00:26:06;;;;;;;15.55;12.20;;;;;;;21.98;95.46;100525.28;5026391;28;20518;-80
2023/09/12 00:28:34;;;;;;;17.38;12.05;;;;;;;21.96;95.63;100522.69;5044731;28;20387;-81
2023/09/12 00:31:00;;;;;;;20.05;12.05;;;;;;;21.91;95.83;100515.91;5062072;28;20041;-81
2023/09/12 00:33:27;;;;;;;17.77;12.45;;;;;;;21.90;96.09;100499.09;5030801;28;20041;-81
2023/09/12 00:35:54;;;;;;;16.73;13.30;;;;;;;21.85;96.93;100501.16;5030518;28;20045;-81
2023/09/12 00:38:20;;;;;;;14.10;11.95;;;;;;;21.81;97.24;100496.94;5047945;28;20462;-80
2023/09/12 00:40:47;;;;;;;13.60;11.77;;;;;;;21.77;97.65;100498.94;5054803;28;20084;-81
2023/09/12 00:43:14;;;;;;;14.65;12.45;;;;;;;21.76;97.46;100483.91;5033134;28;20049;-80
2023/09/12 00:45:40;;;;;;;14.70;12.20;;;;;;;21.74;97.23;100477.78;5047919;28;20120;-81
2023/09/12 00:48:09;;;;;;;14.52;12.48;;;;;;;21.70;97.63;100478.91;5028763;28;20682;-81
2023/09/12 00:50:37;;;;;;;15.05;11.45;;;;;;;21.68;97.92;100466.63;5050521;28;20041;-81
2023/09/12 00:53:04;;;;;;;16.02;12.50;;;;;;;21.64;98.43;100477.47;5031478;28;20523;-81
2023/09/12 00:55:35;;;;;;;18.08;12.73;;;;;;;21.61;98.66;100476.78;5043860;28;20072;-81
2023/09/12 00:58:02;;;;;;;15.93;11.27;;;;;;;21.61;98.08;100466.13;5044914;28;20072;-81
2023/09/12 01:00:29;;;;;;;18.75;12.35;;;;;;;21.56;98.73;100469.09;5030800;28;20049;-79
2023/09/12 01:02:56;;;;;;;16.60;12.60;;;;;;;21.56;98.28;100471.75;5039781;28;20396;-81
2023/09/12 01:05:24;;;;;;;14.30;12.82;;;;;;;21.52;98.78;100462.16;5050197;28;20067;-80
2023/09/12 01:07:51;;;;;;;17.60;13.52;;;;;;;21.46;100.00;100466.06;5046656;28;21541;-80
2023/09/12 01:10:18;;;;;;;18.65;13.93;;;;;;;21.40;100.00;100462.88;5030695;28;20377;-81
2023/09/12 01:12:45;;;;;;;16.42;13.00;;;;;;;21.37;100.00;100471.03;5039434;28;20054;-81
2023/09/12 01:15:14;;;;;;;17.15;13.00;;;;;;;21.41;99.62;100468.13;5064860;28;20044;-82
2023/09/12 01:17:44;;;;;;;22.27;13.93;;;;;;;21.43;100.00;100460.03;5030589;28;20132;-81
2023/09/12 01:20:25;;;;;;;18.35;12.85;;;;;;;21.38;100.00;100462.09;5063759;28;20360;-81
2023/09/12 01:23:18;;;;;;;17.10;12.40;;;;;;;21.37;100.00;100468.38;5046955;28;20067;-82
2023/09/12 01:26:10;;;;;;;21.13;12.32;;;;;;;21.36;100.00;100464.84;5047316;28;20045;-81
2023/09/12 01:28:42;;;;;;;13.57;12.07;;;;;;;21.36;99.90;100464.00;5037152;28;20480;-80
2023/09/12 01:31:09;;;;;;;18.33;13.07;;;;;;;21.34;100.00;100466.78;5047965;28;20045;-81
2023/09/12 01:33:39;;;;;;;21.23;14.35;;;;;;;21.36;100.00;100477.31;5025591;28;20080;-81
2023/09/12 01:36:05;;;;;;;21.63;13.77;;;;;;;21.34;100.00;100481.88;5040485;28;20655;-81
2023/09/12 01:38:32;;;;;;;23.33;14.13;;;;;;;21.30;100.00;100482.06;5031937;28;20049;-81
2023/09/12 01:40:59;;;;;;;18.73;13.25;;;;;;;21.32;100.00;100489.94;5057043;28;20561;-80
2023/09/12 01:43:27;;;;;;;20.27;14.73;;;;;;;21.26;100.00;100495.59;5050313;28;20132;-80
2023/09/12 01:45:56;;;;;;;23.80;15.20;;;;;;;21.21;100.00;100485.25;5032934;28;20441;-80
2023/09/12 01:48:33;;;;;;;18.05;14.38;;;;;;;21.21;100.00;100495.88;5068031;28;20033;-81
2023/09/12 01:51:01;;;;;;;16.45;13.85;;;;;;;21.15;100.00;100496.22;5033206;28;20137;-81
2023/09/12 01:53:30;;;;;;;17.55;13.57;;;;;;;21.09;100.00;100485.91;5049489;28;20087;-80
2023/09/12 01:55:58;;;;;;;17.60;13.65;;;;;;;21.05;100.00;100493.19;5039225;28;20049;-81
2023/09/12 01:58:27;;;;;;;16.45;14.05;;;;;;;21.05;100.00;100485.22;5050010;28;20041;-81
2023/09/12 02:00:53;;;;;;;17.90;14.93;;;;;;;21.01;100.00;100491.66;5032039;28;21024;-81
2023/09/12 02:03:20;;;;;;;19.10;14.38;;;;;;;20.97;100.00;100490.97;5049705;28;20048;-80
2023/09/12 02:05:46;;;;;;;24.02;15.18;;;;;;;20.98;100.00;100489.19;5045160;28;20059;-80
2023/09/12 02:08:13;;;;;;;19.77;14.73;;;;;;;21.00;100.00;100500.56;5064877;28;20613;-81
2023/09/12 02:10:43;;;;;;;16.80;15.10;;;;;;;20.95;100.00;100500.84;5043000;28;20049;-81
2023/09/12 02:13:09;;;;;;;17.08;15.05;;;;;;;20.94;100.00;100499.13;5050293;28;20040;-82
2023/09/12 02:15:36;;;;;;;22.52;15.52;;;;;;;20.87;100.00;100511.06;5058035;28;20049;-81
2023/09/12 02:18:03;;;;;;;15.95;13.38;;;;;;;20.86;100.00;100514.66;5066372;28;20051;-80
2023/09/12 02:20:29;;;;;;;17.55;15.15;;;;;;;20.84;100.00;100519.19;5050478;28;20045;-82
2023/09/12 02:22:56;;;;;;;17.20;13.23;;;;;;;20.82;100.00;100516.63;5045912;28;20109;-81
2023/09/12 02:25:22;;;;;;;16.48;13.60;;;;;;;20.82;100.00;100529.91;5041867;28;20041;-81
2023/09/12 02:27:49;;;;;;;18.48;14.68;;;;;;;20.81;100.00;100528.19;5032244;28;20059;-81
2023/09/12 02:30:16;;;;;;;16.08;14.13;;;;;;;20.80;100.00;100536.25;5049054;28;20049;-80
2023/09/12 02:32:43;;;;;;;16.70;14.82;;;;;;;20.79;100.00;100551.38;5046674;28;20059;-80
2023/09/12 02:35:13;;;;;;;17.48;15.43;;;;;;;20.80;100.00;100557.53;5046028;28;20045;-80
2023/09/12 02:37:39;;;;;;;19.65;16.08;;;;;;;20.82;100.00;100561.84;5033172;28;20574;-80
2023/09/12 02:40:14;;;;;;;19.23;14.82;;;;;;;20.82;100.00;100569.81;5048729;28;20041;-82
2023/09/12 02:42:41;;;;;;;21.55;15.68;;;;;;;20.81;100.00;100567.25;5032283;28;20100;-81
2023/09/12 02:45:08;;;;;;;21.30;16.33;;;;;;;20.76;100.00;100575.47;5021665;28;20166;-81
2023/09/12 02:47:34;;;;;;;17.25;15.45;;;;;;;20.79;100.00;100559.34;5045986;28;20882;-84
2023/09/12 02:50:01;;;;;;;21.45;16.00;;;;;;;20.81;100.00;100567.25;5048618;28;20566;-81
2023/09/12 02:52:27;;;;;;;20.05;15.77;;;;;;;20.84;100.00;100563.56;5027481;28;20041;-81
2023/09/12 02:54:56;;;;;;;19.25;14.35;;;;;;;20.84;100.00;100551.13;5055025;28;20041;-80
2023/09/12 02:57:23;;;;;;;21.10;15.23;;;;;;;20.82;100.00;100553.03;5039026;28;20055;-80
2023/09/12 02:59:49;;;;;;;20.38;15.40;;;;;;;20.80;100.00;100555.72;5048076;28;20044;-81
2023/09/12 03:02:16;;;;;;;20.20;15.82;;;;;;;20.80;100.00;100544.25;5044706;28;20053;-81
2023/09/12 03:04:42;;;;;;;21.70;16.90;;;;;;;20.78;100.00;100543.47;5033742;28;20572;-81
2023/09/12 03:07:09;;;;;;;20.23;16.15;;;;;;;20.77;100.00;100537.28;5032239;28;20056;-82
2023/09/12 03:09:37;;;;;;;20.42;17.08;;;;;;;20.74;100.00;100516.19;5032034;28;20049;-81
2023/09/12 03:12:05;;;;;;;18.98;16.63;;;;;;;20.74;100.00;100509.97;5028662;28;20048;-81
2023/09/12 03:14:32;;;;;;;22.20;17.02;;;;;;;20.66;100.00;100515.69;5046461;28;20185;-82
2023/09/12 03:17:01;;;;;;;18.13;14.15;;;;;;;20.60;100.00;100513.38;5036963;28;20045;-80
2023/09/12 03:19:28;;;;;;;18.05;15.93;;;;;;;20.58;100.00;100518.75;5029109;28;20041;-81
2023/09/12 03:21:57;;;;;;;18.90;14.23;;;;;;;20.61;100.00;100528.38;5028499;28;20049;-82
2023/09/12 03:24:28;;;;;;;18.90;16.55;;;;;;;20.60;100.00;100537.31;5054431;28;20669;-82
2023/09/12 03:26:56;;;;;;;18.77;15.52;;;;;;;20.61;100.00;100536.34;5031217;28;20060;-81
2023/09/12 03:29:26;;;;;;;20.48;16.50;;;;;;;20.64;100.00;100539.72;5027593;28;20045;-80
2023/09/12 03:31:52;;;;;;;22.63;16.50;;;;;;;20.62;100.00;100552.25;5028265;28;20599;-81
2023/09/12 03:34:19;;;;;;;19.65;17.60;;;;;;;20.62;100.00;100546.03;5047455;28;20631;-80
2023/09/12 03:36:46;;;;;;;22.10;15.77;;;;;;;20.64;100.00;100568.97;5027302;28;20049;-81
2023/09/12 03:39:14;;;;;;;20.25;17.05;;;;;;;20.61;100.00;100589.53;5022552;28;20037;-81
2023/09/12 03:41:44;;;;;;;18.77;16.10;;;;;;;20.61;100.00;100614.34;5026722;28;20102;-81
2023/09/12 03:44:30;;;;;;;19.35;17.30;;;;;;;20.64;100.00;100623.97;5029278;28;20055;-81
2023/09/12 03:46:58;;;;;;;18.42;16.10;;;;;;;20.64;100.00;100629.28;5038572;28;20052;-81
2023/09/12 03:49:24;;;;;;;19.50;15.90;;;;;;;20.62;100.00;100625.84;5057142;28;20052;-83
2023/09/12 03:51:51;;;;;;;18.02;16.02;;;;;;;20.58;100.00;100618.97;5041215;28;20044;-81
2023/09/12 03:54:17;;;;;;;17.67;15.25;;;;;;;20.62;100.00;100609.88;5028011;28;20065;-81
2023/09/12 03:56:44;;;;;;;28.42;20.65;;;;;;;20.61;100.00;100614.34;5029481;28;20060;-81
2023/09/12 03:59:11;;;;;;;20.67;18.17;;;;;;;20.63;100.00;100615.09;5031067;28;20060;-80
2023/09/12 04:01:38;;;;;;;25.17;18.90;;;;;;;20.59;100.00;100610.03;5031609;28;20107;-81
2023/09/12 04:04:05;;;;;;;22.02;18.98;;;;;;;20.50;100.00;100614.88;5020768;28;20107;-80
2023/09/12 04:06:31;;;;;;;21.08;16.75;;;;;;;20.52;100.00;100624.59;5058340;28;20072;-82
2023/09/12 04:08:58;;;;;;;28.25;18.65;;;;;;;20.45;100.00;100605.44;5035724;28;20058;-80
2023/09/12 04:11:24;;;;;;;20.67;15.88;;;;;;;20.45;100.00;100592.97;5017230;28;20037;-81
2023/09/12 04:13:51;;;;;;;18.38;15.73;;;;;;;20.44;100.00;100609.91;5004841;28;20756;-81
2023/09/12 04:16:18;;;;;;;16.15;14.48;;;;;;;20.49;100.00;100585.72;5016274;28;20049;-81
2023/09/12 04:18:45;;;;;;;17.45;15.73;;;;;;;20.29;100.00;100547.72;5036717;28;20048;-81
2023/09/12 04:21:12;;;;;;;16.50;14.80;;;;;;;20.13;100.00;100533.50;5023606;28;20044;-81
2023/09/12 04:23:41;;;;;;;13.95;10.80;;;;;;;20.18;100.00;100539.47;5009638;28;20049;-81
2023/09/12 04:26:07;;;;;;;14.13;10.45;;;;;;;20.26;100.00;100534.59;4999929;28;20053;-82
2023/09/12 04:28:34;;;;;;;15.10;10.80;;;;;;;20.28;100.00;100537.16;5003950;28;20129;-80
2023/09/12 04:31:04;;;;;;;11.50;10.30;;;;;;;20.27;100.00;100520.38;5022850;28;20043;-79
2023/09/12 04:33:31;;;;;;;13.00;9.88;;;;;;;20.25;100.00;100527.56;5004770;28;20037;-81
2023/09/12 04:36:04;;;;;;;9.02;8.13;;;;;;;20.17;100.00;100522.63;5009881;28;20420;-80
2023/09/12 04:38:32;;;;;;;9.70;8.73;;;;;;;20.15;100.00;100523.66;5024727;28;20436;-79
2023/09/12 04:41:04;;;;;;;12.77;9.35;;;;;;;20.07;100.00;100512.56;5025515;28;20053;-80
2023/09/12 04:43:36;;;;;;;9.27;8.30;;;;;;;20.00;100.00;100512.88;5005095;28;20528;-80
2023/09/12 04:46:05;;;;;;;8.18;7.35;;;;;;;20.10;100.00;100513.28;5017573;28;20049;-81
2023/09/12 04:48:32;;;;;;;10.30;8.60;;;;;;;20.16;100.00;100512.09;5025042;28;20563;-81
2023/09/12 04:50:58;;;;;;;10.20;7.38;;;;;;;20.21;100.00;100520.69;5037440;28;20049;-81
2023/09/12 04:53:25;;;;;;;8.25;7.30;;;;;;;20.17;100.00;100514.66;5018955;28;20127;-81
2023/09/12 04:55:55;;;;;;;9.98;7.03;;;;;;;20.27;100.00;100507.09;5009029;28;20096;-82
2023/09/12 04:58:22;;;;;;;10.45;8.45;;;;;;;20.27;100.00;100506.22;5005283;28;20092;-81
2023/09/12 05:00:48;;;;;;;8.13;7.30;;;;;;;20.28;100.00;100502.63;5025958;28;20049;-80
2023/09/12 05:03:15;;;;;;;8.15;7.10;;;;;;;20.28;100.00;100503.47;5021650;28;20049;-81
2023/09/12 05:05:41;;;;;;;9.10;7.47;;;;;;;20.38;100.00;100509.19;5023813;28;20057;-81
2023/09/12 05:08:08;;;;;;;6.50;5.90;;;;;;;20.44;100.00;100522.16;5027198;28;20068;-81
2023/09/12 05:10:34;;;;;;;9.48;7.07;;;;;;;20.55;100.00;100526.91;5028215;28;20117;-81
2023/09/12 05:13:01;;;;;;;7.72;6.53;;;;;;;20.52;99.62;100539.50;5062353;28;20107;-81
2023/09/12 05:15:28;;;;;;;7.97;7.18;;;;;;;20.53;99.44;100551.84;5012114;28;20042;-80
2023/09/12 05:17:54;;;;;;;9.10;6.90;;;;;;;20.53;98.90;100562.50;5030600;28;20041;-81
2023/09/12 05:20:21;;;;;;;7.50;6.80;;;;;;;20.54;99.00;100569.53;5025039;28;20049;-81
2023/09/12 05:22:48;;;;;;;8.75;7.30;;;;;;;20.59;99.02;100584.31;5028104;28;20049;-80
2023/09/12 05:25:14;;;;;;;12.00;8.35;;;;;;;20.58;99.91;100587.03;5025255;28;20037;-80
2023/09/12 05:27:41;;;;;;;14.98;8.90;;;;;;;20.47;100.00;100603.56;5009534;28;20400;-81
2023/09/12 05:30:08;;;;;;;15.98;10.50;;;;;;;20.38;100.00;100607.53;5043689;28;20050;-81
2023/09/12 05:32:36;;;;;;;12.18;9.30;;;;;;;20.40;100.00;100605.69;5018123;28;20481;-80
2023/09/12 05:35:03;;;;;;;10.43;8.95;;;;;;;20.38;100.00;100615.50;5027531;28;20520;-81
2023/09/12 05:37:30;;;;;;;8.43;7.43;;;;;;;20.33;100.00;100610.41;5045269;28;20856;-81
2023/09/12 05:39:56;;;;;;;14.38;8.57;;;;;;;20.21;100.00;100626.13;5034814;28;20212;-79
2023/09/12 05:42:23;;;;;;;8.50;7.25;;;;;;;20.16;100.00;100637.00;5013166;28;20057;-80
2023/09/12 05:44:53;;;;;;;9.75;7.03;;;;;;;20.10;100.00;100635.50;5009976;28;20056;-79
2023/09/12 05:47:20;;;;;;;8.20;7.35;;;;;;;20.10;100.00;100642.59;5031686;28;20108;-80
2023/09/12 05:49:47;;;;;;;10.85;8.43;;;;;;;20.02;100.00;100634.16;5057851;28;20045;-81
2023/09/12 05:52:14;;;;;;;12.43;8.70;;;;;;;20.00;100.00;100647.53;5026575;28;20049;-81
2023/09/12 05:54:41;;;;;;;16.58;12.05;;;;;;;19.53;100.00;100630.22;5030062;28;20048;-82
2023/09/12 05:57:09;;;;;;;21.90;12.98;;;;;;;19.08;100.00;100640.22;5039942;28;20093;-82
2023/09/12 05:59:39;;;;;;;21.02;12.75;;;;;;;18.75;100.00;100659.31;5068534;28;20056;-81
2023/09/12 06:02:08;;;;;;;18.35;12.18;;;;;;;18.27;100.00;100669.25;5032972;28;20080;-82
2023/09/12 06:04:36;;;;;;;17.45;10.93;;;;;;;18.00;100.00;100669.44;5061691;28;20091;-80
2023/09/12 06:07:04;;;;;;;18.33;11.73;;;;;;;17.77;100.00;100702.09;5027767;28;20567;-80
2023/09/12 06:09:31;;;;;;;18.52;11.02;;;;;;;17.49;100.00;100671.34;5038526;28;20053;-80
2023/09/12 06:11:57;;;;;;;20.00;13.70;;;;;;;17.35;100.00;100656.00;5031837;28;20053;-81
2023/09/12 06:14:26;;;;;;;14.68;10.38;;;;;;;17.43;100.00;100642.50;5029771;28;20591;-80
2023/09/12 06:16:53;;;;;;;13.10;9.35;;;;;;;17.40;100.00;100658.47;5035476;28;20098;-83
2023/09/12 06:19:20;;;;;;;16.08;9.63;;;;;;;18.27;100.00;100673.69;5051654;28;20048;-81
2023/09/12 06:21:47;;;;;;;12.77;8.98;;;;;;;18.74;100.00;100672.63;5049053;28;20099;-81
2023/09/12 06:24:21;;;;;;;11.52;7.72;;;;;;;17.78;100.00;100664.09;5024666;28;20136;-80
2023/09/12 06:26:48;;;;;;;10.10;6.72;;;;;;;17.47;100.00;100652.03;5059282;28;20675;-80
2023/09/12 06:29:15;;;;;;;8.68;6.60;;;;;;;17.27;100.00;100643.97;5032445;28;20115;-80
2023/09/12 06:31:43;;;;;;;9.38;6.70;;;;;;;17.55;100.00;100624.41;5047938;28;20049;-80
2023/09/12 06:34:11;;;;;;;9.52;7.38;;;;;;;17.64;100.00;100630.22;5028518;28;20125;-79
2023/09/12 06:36:38;;;;;;;8.35;7.43;;;;;;;17.45;100.00;100627.41;5047698;28;20690;-81
2023/09/12 06:39:05;;;;;;;12.02;7.72;;;;;;;17.60;100.00;100631.25;5045438;28;20484;-80
2023/09/12 06:41:32;;;;;;;11.30;8.52;;;;;;;17.62;100.00;100613.50;5046153;28;20491;-82
2023/09/12 06:43:58;;;;;;;18.15;10.80;;;;;;;17.65;100.00;100621.34;5052990;28;20148;-79
2023/09/12 06:46:28;;;;;;;12.85;10.45;;;;;;;17.62;100.00;100615.31;5051552;28;20044;-80
2023/09/12 06:48:54;;;;;;;16.23;12.02;;;;;;;17.77;100.00;100611.19;5036624;28;20057;-80
2023/09/12 06:51:26;;;;;;;12.95;11.57;;;;;;;17.84;100.00;100607.38;5047996;28;20040;-80
2023/09/12 06:53:53;;;;;;;18.90;13.00;;;;;;;17.86;100.00;100592.31;5048116;28;20041;-80
2023/09/12 06:56:21;;;;;;;22.23;13.13;;;;;;;17.88;100.00;100571.91;5031349;28;20049;-80
2023/09/12 06:58:48;;;;;;;17.27;12.93;;;;;;;18.04;100.00;100548.31;5043351;28;20059;-78
2023/09/12 07:01:15;;;;;;;17.25;13.50;;;;;;;18.06;100.00;100553.59;5047847;28;20388;-79
2023/09/12 07:03:41;;;;;;;19.27;14.65;;;;;;;18.09;100.00;100546.34;5034972;28;20123;-79
2023/09/12 07:06:08;;;;;;;23.38;14.88;;;;;;;18.12;100.00;100546.25;5052060;28;20407;-80
2023/09/12 07:08:35;;;;;;;17.02;13.43;;;;;;;18.31;100.00;100545.44;5044119;28;20108;-80
2023/09/12 07:11:05;;;;;;;16.55;13.80;;;;;;;18.25;100.00;100551.00;5042917;28;20098;-79
2023/09/12 07:13:33;;;;;;;18.75;16.08;;;;;;;18.27;100.00;100550.00;5048218;28;20052;-82
2023/09/12 07:16:04;;;;;;;19.83;16.15;;;;;;;18.28;100.00;100525.25;5042699;28;20068;-81
2023/09/12 07:18:36;;;;;;;18.42;16.02;;;;;;;18.42;100.00;100524.66;5040244;28;20033;-82
2023/09/12 07:21:05;;;;;;;18.58;14.57;;;;;;;18.23;100.00;100521.94;5037483;28;20816;-79
2023/09/12 07:23:32;;;;;;;19.45;14.77;;;;;;;18.29;100.00;100508.41;5027666;28;20498;-80
2023/09/12 07:26:00;;;;;;;18.88;14.85;;;;;;;18.24;100.00;100498.94;5043195;28;20044;-79
2023/09/12 07:28:27;;;;;;;23.10;15.60;;;;;;;18.39;100.00;100478.88;5049552;28;20868;-81
2023/09/12 07:30:57;;;;;;;22.98;15.43;;;;;;;18.50;100.00;100477.44;5060135;28;20052;-82
2023/09/12 07:33:24;;;;;;;18.17;16.30;;;;;;;18.46;100.00;100480.28;5045085;28;20549;-82
2023/09/12 07:35:54;;;;;;;20.70;15.73;;;;;;;18.75;100.00;100510.81;5046073;28;20968;-80
2023/09/12 07:38:22;;;;;;;17.70;14.95;;;;;;;19.05;100.00;100534.25;5051301;28;20049;-80
2023/09/12 07:40:49;;;;;;;19.23;16.08;;;;;;;19.16;100.00;100549.66;5047455;28;20116;-80
2023/09/12 07:43:16;;;;;;;18.15;16.33;;;;;;;19.27;100.00;100555.31;5035283;28;20399;-80
2023/09/12 07:45:43;;;;;;;18.17;16.23;;;;;;;19.47;100.00;100559.69;5050592;28;20072;-79
2023/09/12 07:48:12;;;;;;;21.80;17.02;;;;;;;19.55;100.00;100569.94;5046470;28;20040;-78
2023/09/12 07:50:39;;;;;;;21.02;17.17;;;;;;;19.53;100.00;100544.38;5028744;28;20045;-80
2023/09/12 07:53:08;;;;;;;19.50;15.93;;;;;;;19.58;100.00;100534.41;5034349;28;20694;-79
2023/09/12 07:55:45;;;;;;;24.50;17.80;;;;;;;19.72;100.00;100539.06;5029792;28;20052;-80
2023/09/12 07:58:18;;;;;;;19.25;16.40;;;;;;;19.85;100.00;100544.66;5031446;28;20068;-81
2023/09/12 08:00:47;;;;;;;20.25;17.20;;;;;;;20.05;100.00;100548.97;5026941;28;20149;-80
2023/09/12 08:03:16;;;;;;;19.17;17.10;;;;;;;20.20;100.00;100556.16;5019252;28;20048;-79
2023/09/12 08:05:42;;;;;;;18.55;14.77;;;;;;;20.40;100.00;100575.56;5060747;28;20674;-81
2023/09/12 08:08:09;;;;;;;18.85;16.80;;;;;;;20.43;100.00;100604.66;5037695;28;20103;-81
2023/09/12 08:10:36;;;;;;;22.10;16.50;;;;;;;20.30;100.00;100629.19;5024732;28;20484;-81
2023/09/12 08:13:02;;;;;;;22.52;15.32;;;;;;;20.19;100.00;100635.97;5025477;28;20051;-80
2023/09/12 08:15:29;;;;;;;22.25;17.17;;;;;;;20.27;100.00;100647.97;5027847;28;20041;-81
2023/09/12 08:17:56;;;;;;;19.10;16.33;;;;;;;20.37;100.00;100661.66;5025409;28;20077;-81
2023/09/12 08:20:22;;;;;;;20.90;16.55;;;;;;;20.46;100.00;100668.31;5034564;28;20049;-80
2023/09/12 08:22:49;;;;;;;18.27;16.20;;;;;;;20.54;100.00;100675.91;5035344;28;20049;-80
2023/09/12 08:25:16;;;;;;;21.30;15.45;;;;;;;20.50;100.00;100675.19;5012758;28;20065;-81
2023/09/12 08:27:44;;;;;;;18.00;15.55;;;;;;;20.58;100.00;100688.94;5009795;28;20104;-81
2023/09/12 08:30:12;;;;;;;20.27;15.73;;;;;;;20.77;100.00;100702.22;5012687;28;20408;-80
2023/09/12 08:32:43;;;;;;;19.40;15.52;;;;;;;20.72;100.00;100706.06;5006656;28;20175;-81
2023/09/12 08:35:12;;;;;;;18.08;14.45;;;;;;;20.81;100.00;100709.09;5046466;28;20163;-81
2023/09/12 08:37:40;;;;;;;20.70;15.48;;;;;;;20.84;100.00;100702.75;5011872;28;20041;-79
2023/09/12 08:40:10;;;;;;;17.90;15.27;;;;;;;20.85;100.00;100711.63;5030178;28;20057;-80
2023/09/12 08:42:44;;;;;;;21.20;16.77;;;;;;;20.91;100.00;100696.19;5024822;28;20037;-81
2023/09/12 08:45:19;;;;;;;19.38;16.08;;;;;;;21.00;100.00;100702.81;5009273;28;20072;-79
2023/09/12 08:47:51;;;;;;;18.83;15.63;;;;;;;20.97;100.00;100703.84;5011077;28;20045;-80
2023/09/12 08:50:18;;;;;;;20.83;16.95;;;;;;;20.92;100.00;100707.69;5031851;28;20037;-80
2023/09/12 08:52:48;;;;;;;16.30;13.50;;;;;;;20.91;100.00;100696.19;5034280;28;20057;-80
2023/09/12 08:55:15;;;;;;;14.15;11.90;;;;;;;20.94;100.00;100697.84;5030180;28;20472;-81
2023/09/12 08:57:44;;;;;;;9.23;8.30;;;;;;;20.95;100.00;100704.88;5015515;28;20041;-81
2023/09/12 09:00:14;;;;;;;10.82;6.50;;;;;;;21.06;100.00;100699.00;5027924;28;20045;-81
2023/09/12 09:02:41;;;;;;;5.28;4.78;;;;;;;21.08;100.00;100713.97;5016141;28;20041;-80
2023/09/12 09:05:11;;;;;;;5.43;4.93;;;;;;;20.99;100.00;100722.41;5031299;28;20053;-81
2023/09/12 09:07:39;;;;;;;12.57;5.57;;;;;;;20.82;100.00;100731.28;5032229;28;20521;-80
2023/09/12 09:10:09;;;;;;;5.75;5.22;;;;;;;20.77;100.00;100741.28;5073228;28;20117;-81
2023/09/12 09:12:36;;;;;;;6.60;5.00;;;;;;;20.60;100.00;100745.59;5055925;28;20058;-81
2023/09/12 09:15:25;;;;;;;5.68;4.47;;;;;;;20.45;100.00;100749.00;5054715;28;20483;-80
2023/09/12 09:17:55;;;;;;;5.00;3.88;;;;;;;20.26;100.00;100752.56;5035901;28;20070;-83
2023/09/12 09:20:34;;;;;;;4.22;3.83;;;;;;;20.09;100.00;100750.72;5053350;28;20044;-81
2023/09/12 09:23:09;;;;;;;6.05;3.92;;;;;;;19.96;100.00;100741.59;5039134;28;20557;-82
2023/09/12 09:25:54;;;;;;;5.57;4.57;;;;;;;19.92;100.00;100748.84;5052708;28;20044;-81
2023/09/12 09:28:22;;;;;;;5.28;4.78;;;;;;;19.82;100.00;100785.59;5055089;28;20048;-82
2023/09/12 09:30:53;;;;;;;5.88;5.03;;;;;;;19.74;100.00;100808.09;5053917;28;20568;-80
2023/09/12 09:33:20;;;;;;;6.15;4.38;;;;;;;19.73;100.00;100769.19;5050102;28;20051;-82
2023/09/12 09:35:51;;;;;;;6.05;5.45;;;;;;;19.71;100.00;100748.03;5036145;28;20049;-81
2023/09/12 09:38:20;;;;;;;12.07;6.90;;;;;;;19.54;100.00;100761.19;5050062;28;20094;-82
2023/09/12 09:40:47;;;;;;;8.00;6.75;;;;;;;19.04;100.00;100775.75;5037954;28;20033;-81
2023/09/12 09:43:14;;;;;;;6.68;6.00;;;;;;;18.70;100.00;100729.38;5051881;28;20040;-80
2023/09/12 09:45:46;;;;;;;15.30;10.60;;;;;;;18.54;100.00;100707.94;5055672;28;20040;-81
2023/09/12 09:48:26;;;;;;;16.85;10.82;;;;;;;18.40;100.00;100732.38;5045711;28;20072;-80
2023/09/12 09:50:54;;;;;;;20.13;13.25;;;;;;;18.32;100.00;100740.63;5031653;28;20041;-81
2023/09/12 09:53:28;;;;;;;14.90;12.73;;;;;;;18.38;100.00;100715.66;5052529;28;20085;-76
2023/09/12 09:56:08;;;;;;;16.38;11.30;;;;;;;18.43;100.00;100769.34;5068585;28;20147;-81
2023/09/12 09:58:35;;;;;;;24.55;16.70;;;;;;;18.35;100.00;100761.69;5051818;28;20048;-80
2023/09/12 10:01:03;;;;;;;19.58;13.95;;;;;;;18.36;100.00;100723.66;5034410;28;20641;-80
2023/09/12 10:03:33;;;;;;;15.07;12.20;;;;;;;18.41;100.00;100715.50;5051088;28;20044;-80
2023/09/12 10:06:04;;;;;;;18.98;14.20;;;;;;;18.40;100.00;100719.13;5043867;28;20041;-80
2023/09/12 10:08:33;;;;;;;15.57;11.07;;;;;;;18.41;100.00;100715.50;5054549;28;20056;-80
2023/09/12 10:11:00;;;;;;;16.38;10.55;;;;;;;18.44;100.00;100737.47;5050131;28;20419;-80
2023/09/12 10:13:32;;;;;;;16.17;9.63;;;;;;;18.50;100.00;100723.97;5035483;28;20155;-81
2023/09/12 10:16:04;;;;;;;12.60;10.18;;;;;;;18.69;100.00;100696.69;5062850;28;20044;-79
2023/09/12 10:18:44;;;;;;;11.00;8.27;;;;;;;18.85;100.00;100724.28;5026407;28;20078;-81
2023/09/12 10:21:20;;;;;;;10.50;8.68;;;;;;;18.96;100.00;100710.59;5033109;28;20495;-79
2023/09/12 10:23:50;;;;;;;13.50;9.00;;;;;;;19.06;100.00;100712.84;5052869;28;20906;-82
2023/09/12 10:26:18;;;;;;;8.75;7.85;;;;;;;19.03;100.00;100718.28;5055954;28;20647;-81
2023/09/12 10:28:45;;;;;;;9.50;8.00;;;;;;;18.98;100.00;100710.53;5030968;28;20056;-80
2023/09/12 10:31:13;;;;;;;9.55;7.53;;;;;;;18.93;100.00;100707.19;5055059;28;20040;-80
2023/09/12 10:33:40;;;;;;;8.05;7.32;;;;;;;18.97;100.00;100691.09;5033759;28;20055;-80
2023/09/12 10:36:10;;;;;;;9.95;7.60;;;;;;;19.01;100.00;100679.41;5051343;28;20094;-82
2023/09/12 10:38:45;;;;;;;8.30;7.35;;;;;;;19.03;100.00;100682.00;5029986;28;20517;-83
2023/09/12 10:41:16;;;;;;;8.43;7.10;;;;;;;19.12;100.00;100678.94;5051323;28;20063;-81
2023/09/12 10:43:49;;;;;;;7.65;6.93;;;;;;;19.06;100.00;100667.75;5063645;28;20040;-80
2023/09/12 10:46:16;;;;;;;11.88;7.05;;;;;;;19.18;100.00;100677.81;5031132;28;20044;-81
2023/09/12 10:48:43;;;;;;;9.27;8.10;;;;;;;19.15;100.00;100701.81;5038284;28;20044;-79
2023/09/12 10:51:13;;;;;;;9.52;6.90;;;;;;;19.28;100.00;100689.75;5037003;28;20818;-80
2023/09/12 10:53:48;;;;;;;9.32;7.53;;;;;;;19.26;100.00;100683.63;5035197;28;20072;-80
2023/09/12 10:56:21;;;;;;;10.07;8.15;;;;;;;19.35;100.00;100685.03;5068064;28;20833;-80
2023/09/12 10:59:03;;;;;;;8.20;7.38;;;;;;;19.35;100.00;100703.59;5032560;28;20059;-81
2023/09/12 11:01:32;;;;;;;8.43;7.13;;;;;;;19.43;100.00;100705.91;5048568;28;20075;-80
2023/09/12 11:03:59;;;;;;;10.82;7.72;;;;;;;19.43;100.00;100679.38;5050155;28;20047;-80
2023/09/12 11:06:38;;;;;;;8.80;7.90;;;;;;;19.47;100.00;100663.22;5050996;28;20045;-80
2023/09/12 11:09:27;;;;;;;7.45;6.75;;;;;;;19.63;100.00;100681.97;5035277;28;20057;-80
2023/09/12 11:12:04;;;;;;;10.35;8.68;;;;;;;19.59;100.00;100701.63;5044328;28;21358;-84
2023/09/12 11:14:34;;;;;;;10.93;7.97;;;;;;;19.51;100.00;100738.28;5056531;28;20127;-82